sensor_id;sensor_type;location;lat;lon;timestamp;temperature;humidity
14154;DHT22;7157;53.144;7.570;2023-04-06T00:00:12;4.81;78.99
14154;DHT22;7157;53.144;7.570;2023-04-06T00:10:17;4.72;79.39
14154;DHT22;7157;53.144;7.570;2023-04-06T00:20:20;4.56;79.96
14154;DHT22;7157;53.144;7.570;2023-04-06T00:30:24;4.46;79.22
14154;DHT22;7157;53.144;7.570;2023-04-06T00:40:27;4.33;79.66
14154;DHT22;7157;53.144;7.570;2023-04-06T00:50:31;4.27;79.07
14154;DHT22;7157;53.144;7.570;2023-04-06T01:00:34;4.16;79.21
14154;DHT22;7157;53.144;7.570;2023-04-06T01:10:38;4.05;79.03
14154;DHT22;7157;53.144;7.570;2023-04-06T01:20:41;3.83;79.82
14154;DHT22;7157;53.144;7.570;2023-04-06T01:30:46;3.75;79.91
14154;DHT22;7157;53.144;7.570;2023-04-06T01:40:48;3.63;80.15
14154;DHT22;7157;53.144;7.570;2023-04-06T01:50:53;3.57;79.89
14154;DHT22;7157;53.144;7.570;2023-04-06T02:00:55;3.47;80.04
14154;DHT22;7157;53.144;7.570;2023-04-06T02:11:00;3.38;80.14
14154;DHT22;7157;53.144;7.570;2023-04-06T02:21:03;3.21;80.91
14154;DHT22;7157;53.144;7.570;2023-04-06T02:31:08;3.14;81.17
14154;DHT22;7157;53.144;7.570;2023-04-06T02:41:11;2.99;81.16
14154;DHT22;7157;53.144;7.570;2023-04-06T02:51:15;2.83;80.68
14154;DHT22;7157;53.144;7.570;2023-04-06T03:01:18;2.73;80.98
14154;DHT22;7157;53.144;7.570;2023-04-06T03:11:26;2.60;81.16
14154;DHT22;7157;53.144;7.570;2023-04-06T03:21:30;2.53;81.73
14154;DHT22;7157;53.144;7.570;2023-04-06T03:31:34;2.47;82.00
14154;DHT22;7157;53.144;7.570;2023-04-06T03:41:37;2.43;81.75
14154;DHT22;7157;53.144;7.570;2023-04-06T03:51:41;2.24;82.44
14154;DHT22;7157;53.144;7.570;2023-04-06T04:01:44;2.20;82.81
14154;DHT22;7157;53.144;7.570;2023-04-06T04:11:48;2.22;82.06
14154;DHT22;7157;53.144;7.570;2023-04-06T04:21:51;2.15;82.41
14154;DHT22;7157;53.144;7.570;2023-04-06T04:31:55;2.09;82.31
14154;DHT22;7157;53.144;7.570;2023-04-06T04:41:58;2.08;81.95
14154;DHT22;7157;53.144;7.570;2023-04-06T04:52:02;1.99;81.62
14154;DHT22;7157;53.144;7.570;2023-04-06T05:02:05;2.00;81.59
14154;DHT22;7157;53.144;7.570;2023-04-06T05:12:10;2.03;81.12
14154;DHT22;7157;53.144;7.570;2023-04-06T05:22:13;2.05;81.73
14154;DHT22;7157;53.144;7.570;2023-04-06T05:32:20;2.19;81.53
14154;DHT22;7157;53.144;7.570;2023-04-06T05:42:26;2.43;80.77
14154;DHT22;7157;53.144;7.570;2023-04-06T05:52:30;2.57;80.88
14154;DHT22;7157;53.144;7.570;2023-04-06T06:02:33;2.78;79.81
14154;DHT22;7157;53.144;7.570;2023-04-06T06:12:37;2.93;78.88
14154;DHT22;7157;53.144;7.570;2023-04-06T06:22:40;3.21;77.06
14154;DHT22;7157;53.144;7.570;2023-04-06T06:32:44;3.55;75.50
14154;DHT22;7157;53.144;7.570;2023-04-06T06:42:47;3.95;73.88
14154;DHT22;7157;53.144;7.570;2023-04-06T06:52:52;4.33;72.22
14154;DHT22;7157;53.144;7.570;2023-04-06T07:02:54;4.68;70.48
14154;DHT22;7157;53.144;7.570;2023-04-06T07:12:59;5.13;67.53
14154;DHT22;7157;53.144;7.570;2023-04-06T07:23:01;5.42;65.95
14154;DHT22;7157;53.144;7.570;2023-04-06T07:33:06;5.76;64.09
14154;DHT22;7157;53.144;7.570;2023-04-06T07:43:09;6.07;63.57
14154;DHT22;7157;53.144;7.570;2023-04-06T07:53:13;6.74;60.10
14154;DHT22;7157;53.144;7.570;2023-04-06T08:03:16;6.98;61.54
14154;DHT22;7157;53.144;7.570;2023-04-06T08:13:21;7.48;59.92
14154;DHT22;7157;53.144;7.570;2023-04-06T08:23:23;7.79;59.57
14154;DHT22;7157;53.144;7.570;2023-04-06T08:33:28;8.49;54.82
14154;DHT22;7157;53.144;7.570;2023-04-06T08:43:31;8.53;54.94
14154;DHT22;7157;53.144;7.570;2023-04-06T08:53:35;8.93;54.73
14154;DHT22;7157;53.144;7.570;2023-04-06T09:03:39;9.57;53.04
14154;DHT22;7157;53.144;7.570;2023-04-06T09:13:49;9.89;52.01
14154;DHT22;7157;53.144;7.570;2023-04-06T09:23:58;10.42;50.64
14154;DHT22;7157;53.144;7.570;2023-04-06T09:34:03;10.71;47.67
14154;DHT22;7157;53.144;7.570;2023-04-06T09:44:09;11.12;48.49
14154;DHT22;7157;53.144;7.570;2023-04-06T09:54:18;11.88;43.30
14154;DHT22;7157;53.144;7.570;2023-04-06T10:04:29;12.20;40.33
14154;DHT22;7157;53.144;7.570;2023-04-06T10:14:35;12.16;41.09
14154;DHT22;7157;53.144;7.570;2023-04-06T10:24:39;12.82;39.68
14154;DHT22;7157;53.144;7.570;2023-04-06T10:34:44;13.14;38.66
14154;DHT22;7157;53.144;7.570;2023-04-06T10:44:49;13.63;36.95
14154;DHT22;7157;53.144;7.570;2023-04-06T10:54:53;13.80;36.56
14154;DHT22;7157;53.144;7.570;2023-04-06T11:04:58;14.58;34.82
14154;DHT22;7157;53.144;7.570;2023-04-06T11:15:03;14.88;35.75
14154;DHT22;7157;53.144;7.570;2023-04-06T11:25:08;15.83;31.77
14154;DHT22;7157;53.144;7.570;2023-04-06T11:35:20;25.82;17.63
14154;DHT22;7157;53.144;7.570;2023-04-06T11:45:24;27.51;14.80
14154;DHT22;7157;53.144;7.570;2023-04-06T11:55:28;30.23;12.71
14154;DHT22;7157;53.144;7.570;2023-04-06T12:05:33;28.55;12.95
14154;DHT22;7157;53.144;7.570;2023-04-06T12:15:38;26.76;14.86
14154;DHT22;7157;53.144;7.570;2023-04-06T12:25:42;23.09;19.38
14154;DHT22;7157;53.144;7.570;2023-04-06T12:35:47;24.18;18.97
14154;DHT22;7157;53.144;7.570;2023-04-06T12:45:50;20.93;21.53
14154;DHT22;7157;53.144;7.570;2023-04-06T12:55:55;21.53;22.64
14154;DHT22;7157;53.144;7.570;2023-04-06T13:05:59;21.72;21.08
14154;DHT22;7157;53.144;7.570;2023-04-06T13:16:06;21.72;19.86
14154;DHT22;7157;53.144;7.570;2023-04-06T13:26:09;20.22;20.35
14154;DHT22;7157;53.144;7.570;2023-04-06T13:36:13;18.86;22.27
14154;DHT22;7157;53.144;7.570;2023-04-06T13:46:18;18.94;22.49
14154;DHT22;7157;53.144;7.570;2023-04-06T13:56:23;18.12;22.81
14154;DHT22;7157;53.144;7.570;2023-04-06T14:06:26;18.19;22.80
14154;DHT22;7157;53.144;7.570;2023-04-06T14:16:33;17.24;24.14
14154;DHT22;7157;53.144;7.570;2023-04-06T14:26:37;17.34;24.69
14154;DHT22;7157;53.144;7.570;2023-04-06T14:36:41;16.95;26.93
14154;DHT22;7157;53.144;7.570;2023-04-06T14:46:44;16.93;26.41
14154;DHT22;7157;53.144;7.570;2023-04-06T14:56:48;16.59;27.51
14154;DHT22;7157;53.144;7.570;2023-04-06T15:06:51;16.56;28.36
14154;DHT22;7157;53.144;7.570;2023-04-06T15:16:55;15.97;29.85
14154;DHT22;7157;53.144;7.570;2023-04-06T15:26:58;15.66;30.63
14154;DHT22;7157;53.144;7.570;2023-04-06T15:37:03;15.58;31.12
14154;DHT22;7157;53.144;7.570;2023-04-06T15:47:06;15.36;31.87
14154;DHT22;7157;53.144;7.570;2023-04-06T15:57:10;15.51;32.57
14154;DHT22;7157;53.144;7.570;2023-04-06T16:07:13;15.38;33.09
14154;DHT22;7157;53.144;7.570;2023-04-06T16:17:17;15.32;33.01
14154;DHT22;7157;53.144;7.570;2023-04-06T16:27:20;15.13;33.82
14154;DHT22;7157;53.144;7.570;2023-04-06T16:37:25;14.96;34.24
14154;DHT22;7157;53.144;7.570;2023-04-06T16:47:30;14.67;34.31
14154;DHT22;7157;53.144;7.570;2023-04-06T16:57:35;14.44;35.53
14154;DHT22;7157;53.144;7.570;2023-04-06T17:07:37;14.01;37.10
14154;DHT22;7157;53.144;7.570;2023-04-06T17:17:42;13.88;37.82
14154;DHT22;7157;53.144;7.570;2023-04-06T17:27:45;13.52;38.18
14154;DHT22;7157;53.144;7.570;2023-04-06T17:37:49;13.41;38.24
14154;DHT22;7157;53.144;7.570;2023-04-06T17:47:52;13.35;38.49
14154;DHT22;7157;53.144;7.570;2023-04-06T17:57:56;12.75;44.15
14154;DHT22;7157;53.144;7.570;2023-04-06T18:07:59;12.51;46.61
14154;DHT22;7157;53.144;7.570;2023-04-06T18:18:03;12.28;48.18
14154;DHT22;7157;53.144;7.570;2023-04-06T18:28:08;11.91;52.16
14154;DHT22;7157;53.144;7.570;2023-04-06T18:38:12;11.76;53.43
14154;DHT22;7157;53.144;7.570;2023-04-06T18:48:15;11.70;55.50
14154;DHT22;7157;53.144;7.570;2023-04-06T18:58:19;11.53;56.28
14154;DHT22;7157;53.144;7.570;2023-04-06T19:08:22;11.09;61.25
14154;DHT22;7157;53.144;7.570;2023-04-06T19:18:26;11.02;62.06
14154;DHT22;7157;53.144;7.570;2023-04-06T19:28:29;11.03;62.62
14154;DHT22;7157;53.144;7.570;2023-04-06T19:38:33;11.12;62.62
14154;DHT22;7157;53.144;7.570;2023-04-06T19:48:37;10.83;65.23
14154;DHT22;7157;53.144;7.570;2023-04-06T19:58:41;10.83;65.24
14154;DHT22;7157;53.144;7.570;2023-04-06T20:08:44;10.74;66.79
14154;DHT22;7157;53.144;7.570;2023-04-06T20:18:48;10.75;67.68
14154;DHT22;7157;53.144;7.570;2023-04-06T20:28:50;10.71;69.54
14154;DHT22;7157;53.144;7.570;2023-04-06T20:38:54;10.55;71.74
14154;DHT22;7157;53.144;7.570;2023-04-06T20:48:57;10.44;73.69
14154;DHT22;7157;53.144;7.570;2023-04-06T20:59:02;10.31;74.74
14154;DHT22;7157;53.144;7.570;2023-04-06T21:09:05;10.19;76.82
14154;DHT22;7157;53.144;7.570;2023-04-06T21:19:09;10.22;77.19
14154;DHT22;7157;53.144;7.570;2023-04-06T21:29:12;10.14;78.01
14154;DHT22;7157;53.144;7.570;2023-04-06T21:39:16;10.14;78.74
14154;DHT22;7157;53.144;7.570;2023-04-06T21:49:19;10.24;77.88
14154;DHT22;7157;53.144;7.570;2023-04-06T21:59:23;9.93;79.65
14154;DHT22;7157;53.144;7.570;2023-04-06T22:09:25;9.95;79.56
14154;DHT22;7157;53.144;7.570;2023-04-06T22:19:29;9.72;80.94
14154;DHT22;7157;53.144;7.570;2023-04-06T22:29:32;9.74;80.60
14154;DHT22;7157;53.144;7.570;2023-04-06T22:39:36;9.57;81.45
14154;DHT22;7157;53.144;7.570;2023-04-06T22:49:39;9.63;80.82
14154;DHT22;7157;53.144;7.570;2023-04-06T22:59:43;9.68;79.82
14154;DHT22;7157;53.144;7.570;2023-04-06T23:09:46;9.57;80.01
14154;DHT22;7157;53.144;7.570;2023-04-06T23:19:50;9.68;79.47
14154;DHT22;7157;53.144;7.570;2023-04-06T23:29:52;9.51;79.79
14154;DHT22;7157;53.144;7.570;2023-04-06T23:39:57;9.59;79.87
14154;DHT22;7157;53.144;7.570;2023-04-06T23:50:00;9.57;79.98
